Saint Charles, Louisiana
Current Conditions -  °F | °C
As of 1:50 PM on Sunday 23 Nov 2014 (Local Time) from KHUM Reporting Station
Broken Clouds Broken Clouds  
Wind Chill: 73°   Ceiling: 2200
Heat Index: 73°   Visibility: 7mi
Dew Point: 64°   Wind: 17mph
Humidity: 73%   Direction: 220°SW
Pressure: 29.66"   Gusts: 25mph
Location:  29.7195°N, 90.5441°W
Report Text: KHUM 231950Z 22015G22KT 7SM BKN022 23/18 A2966 RMK RY12/30 CLOSED ATIS F VA/RY18 LJ
Loading
Personal Weather Stations






























Interactive Weather Map New forecast layout! Learn more

10-Day Weather Forecast

Advertisements
Track Severe Weather on mobile